createdAt,value
2023-01-28T00:03:33.156Z,82.45
2023-01-28T00:07:34.935Z,82.58
2023-01-28T00:11:36.856Z,82.37
2023-01-28T00:15:38.582Z,82.46
2023-01-28T00:19:40.400Z,82.50
2023-01-28T00:23:47.370Z,82.57
2023-01-28T00:27:50.133Z,82.75
2023-01-28T00:31:51.940Z,82.55
2023-01-28T00:36:01.406Z,82.61
2023-01-28T00:40:03.202Z,82.51
2023-01-28T00:44:05.011Z,82.84
2023-01-28T00:48:07.052Z,82.47
2023-01-28T00:52:08.800Z,82.35
2023-01-28T00:56:18.584Z,82.90
2023-01-28T01:00:27.322Z,82.58
2023-01-28T01:04:35.487Z,82.71
2023-01-28T01:08:42.929Z,82.77
2023-01-28T01:12:47.467Z,82.91
2023-01-28T01:16:49.283Z,82.80
2023-01-28T01:20:59.072Z,82.80
2023-01-28T01:25:01.421Z,83.01
2023-01-28T01:29:03.293Z,82.79
2023-01-28T01:33:05.028Z,82.86
2023-01-28T01:37:08.698Z,83.09
2023-01-28T01:41:23.247Z,83.26
2023-01-28T01:45:26.420Z,83.37
2023-01-28T01:49:28.860Z,83.19
2023-01-28T01:53:31.719Z,83.46
2023-01-28T01:57:36.197Z,83.08
2023-01-28T02:01:38.059Z,83.07
2023-01-28T02:05:40.263Z,82.95
2023-01-28T02:09:44.078Z,82.80
2023-01-28T02:13:50.648Z,83.19
2023-01-28T02:17:52.779Z,83.04
2023-01-28T02:22:26.765Z,82.84
2023-01-28T02:27:04.207Z,82.43
2023-01-28T02:31:27.442Z,82.41
2023-01-28T02:35:35.396Z,82.15
2023-01-28T02:39:48.261Z,82.34
2023-01-28T02:43:50.794Z,82.05
2023-01-28T02:47:59.236Z,81.74
2023-01-28T02:52:45.724Z,81.94
2023-01-28T02:56:56.953Z,81.71
2023-01-28T03:01:43.026Z,81.39
2023-01-28T03:06:09.081Z,81.64
2023-01-28T03:10:17.149Z,81.28
2023-01-28T03:14:39.308Z,81.51
2023-01-28T03:19:10.959Z,81.42
2023-01-28T03:23:38.861Z,80.90
2023-01-28T03:28:09.195Z,80.62
2023-01-28T03:32:30.660Z,80.62
2023-01-28T03:36:51.902Z,80.48
2023-01-28T03:41:12.560Z,80.14
2023-01-28T03:45:16.033Z,80.29
2023-01-28T03:49:21.220Z,80.80
2023-01-28T03:53:23.515Z,80.71
2023-01-28T03:57:28.099Z,80.76
2023-01-28T04:01:30.103Z,80.55
2023-01-28T04:05:32.015Z,80.23
2023-01-28T04:09:36.121Z,80.61
2023-01-28T04:14:00.554Z,80.39
2023-01-28T04:18:10.323Z,80.30
2023-01-28T04:22:12.606Z,79.89
2023-01-28T04:26:17.175Z,80.35
2023-01-28T04:30:19.503Z,79.79
2023-01-28T04:34:39.304Z,79.86
2023-01-28T04:39:00.918Z,79.37
2023-01-28T04:43:13.562Z,79.61
2023-01-28T04:47:26.744Z,79.43
2023-01-28T04:51:44.445Z,79.28
2023-01-28T04:55:58.867Z,79.15
2023-01-28T05:00:05.636Z,79.47
2023-01-28T05:04:07.981Z,79.20
2023-01-28T05:08:13.396Z,79.24
2023-01-28T05:12:15.578Z,78.63
2023-01-28T05:16:18.442Z,78.86
2023-01-28T05:20:20.310Z,78.14
2023-01-28T05:24:24.474Z,78.51
2023-01-28T05:28:26.283Z,78.54
2023-01-28T05:32:28.130Z,77.97
2023-01-28T05:36:30.100Z,78.27
2023-01-28T05:40:35.576Z,77.63
2023-01-28T05:44:38.131Z,77.90
2023-01-28T05:49:13.779Z,78.24
2023-01-28T05:53:34.340Z,77.99
2023-01-28T05:57:36.752Z,77.56
2023-01-28T06:01:39.783Z,77.82
2023-01-28T06:05:41.612Z,77.91
2023-01-28T06:09:43.487Z,77.75
2023-01-28T06:13:45.782Z,77.51
2023-01-28T06:18:07.875Z,77.47
2023-01-28T06:22:10.518Z,77.70
2023-01-28T06:26:12.222Z,77.52
2023-01-28T06:30:17.241Z,77.16
2023-01-28T06:34:19.436Z,77.50
2023-01-28T06:38:21.191Z,77.19
2023-01-28T06:42:23.119Z,77.66
2023-01-28T06:46:25.074Z,77.52
2023-01-28T06:50:26.796Z,77.61
2023-01-28T06:54:28.495Z,77.52
2023-01-28T06:58:30.375Z,77.60
2023-01-28T07:02:32.047Z,77.44
2023-01-28T07:06:33.850Z,77.54
2023-01-28T07:10:35.764Z,77.64
2023-01-28T07:14:37.617Z,77.47
2023-01-28T07:18:39.462Z,77.28
2023-01-28T07:22:42.931Z,77.18
2023-01-28T07:26:44.706Z,77.40
2023-01-28T07:30:46.442Z,77.23
2023-01-28T07:34:48.179Z,77.20
2023-01-28T07:38:49.858Z,77.07
2023-01-28T07:42:52.710Z,77.14
2023-01-28T07:46:57.061Z,77.37
2023-01-28T07:51:00.125Z,77.30
2023-01-28T07:55:01.858Z,77.22
2023-01-28T07:59:03.820Z,76.84
2023-01-28T08:03:18.018Z,77.05
2023-01-28T08:07:19.743Z,76.94
2023-01-28T08:11:21.980Z,76.99
2023-01-28T08:15:23.880Z,77.27
2023-01-28T08:19:25.685Z,77.19
2023-01-28T08:23:27.822Z,77.43
2023-01-28T08:27:29.629Z,77.17
2023-01-28T08:31:31.544Z,77.50
2023-01-28T08:35:33.902Z,77.12
2023-01-28T08:39:35.919Z,77.65
2023-01-28T08:43:37.719Z,77.25
2023-01-28T08:47:48.562Z,77.43
2023-01-28T08:51:50.426Z,77.06
2023-01-28T08:55:54.499Z,77.09
2023-01-28T08:59:56.205Z,76.96
2023-01-28T09:03:57.962Z,77.00
2023-01-28T09:08:08.531Z,77.16
2023-01-28T09:12:11.249Z,77.02
2023-01-28T09:16:13.253Z,77.31
2023-01-28T09:20:15.438Z,77.05
2023-01-28T09:24:17.342Z,77.29
2023-01-28T09:28:19.164Z,76.98
2023-01-28T09:32:21.345Z,76.98
2023-01-28T09:36:23.585Z,77.24
2023-01-28T09:40:42.258Z,77.04
2023-01-28T09:44:55.654Z,77.31
2023-01-28T09:49:01.650Z,77.27
2023-01-28T09:53:19.126Z,77.16
2023-01-28T09:57:24.933Z,76.88
2023-01-28T10:01:38.957Z,77.00
2023-01-28T10:05:56.250Z,76.56
2023-01-28T10:10:03.756Z,76.46
2023-01-28T10:14:38.179Z,76.36
2023-01-28T10:18:46.258Z,75.97
2023-01-28T10:23:01.058Z,76.02
2023-01-28T10:27:09.902Z,75.64
2023-01-28T10:31:14.387Z,75.84
2023-01-28T10:35:16.306Z,75.68
2023-01-28T10:39:21.701Z,75.69
2023-01-28T10:43:26.838Z,75.74
2023-01-28T10:47:45.817Z,75.29
2023-01-28T10:51:47.600Z,75.72
2023-01-28T10:55:58.879Z,75.37
2023-01-28T11:00:24.499Z,75.16
2023-01-28T11:04:35.632Z,74.90
2023-01-28T11:08:44.733Z,74.79
2023-01-28T11:12:55.686Z,75.18
2023-01-28T11:16:58.346Z,74.72
2023-01-28T11:21:27.891Z,75.00
2023-01-28T11:25:35.277Z,75.07
2023-01-28T11:29:42.233Z,75.04
2023-01-28T11:33:53.119Z,74.54
2023-01-28T11:37:54.975Z,74.61
2023-01-28T11:42:19.454Z,74.34
2023-01-28T11:46:21.249Z,74.22
2023-01-28T11:50:39.814Z,74.57
2023-01-28T11:55:20.510Z,74.47
2023-01-28T11:59:28.443Z,74.22
2023-01-28T12:03:39.127Z,74.35
2023-01-28T12:07:59.737Z,74.02
2023-01-28T12:12:15.840Z,74.29
2023-01-28T12:17:05.798Z,73.85
2023-01-28T12:21:20.285Z,74.04
2023-01-28T12:26:20.546Z,73.48
2023-01-28T12:30:29.338Z,73.30
2023-01-28T12:34:49.169Z,73.68
2023-01-28T12:38:50.819Z,73.58
2023-01-28T12:42:59.586Z,73.57
2023-01-28T12:47:08.460Z,73.63
2023-01-28T12:51:16.188Z,73.18
2023-01-28T12:55:30.031Z,72.95
2023-01-28T12:59:45.513Z,72.65
2023-01-28T13:04:08.516Z,72.68
2023-01-28T13:08:23.210Z,72.95
2023-01-28T13:12:25.845Z,72.70
2023-01-28T13:16:36.868Z,73.05
2023-01-28T13:20:50.856Z,72.70
2023-01-28T13:24:52.683Z,72.74
2023-01-28T13:29:26.820Z,73.07
2023-01-28T13:33:34.857Z,72.71
2023-01-28T13:37:40.105Z,72.76
2023-01-28T13:41:49.661Z,72.66
2023-01-28T13:46:08.177Z,72.51
2023-01-28T13:50:18.237Z,72.42
2023-01-28T13:54:23.729Z,72.50
2023-01-28T13:58:25.386Z,72.53
2023-01-28T14:02:41.994Z,72.43
2023-01-28T14:07:14.900Z,72.48
2023-01-28T14:11:53.508Z,72.26
2023-01-28T14:16:19.644Z,72.17
2023-01-28T14:20:27.594Z,72.25
2023-01-28T14:24:29.441Z,71.58
2023-01-28T14:29:19.831Z,71.81
2023-01-28T14:33:22.971Z,71.24
2023-01-28T14:37:29.143Z,71.42
2023-01-28T14:41:31.778Z,71.21
2023-01-28T14:45:45.560Z,71.30
2023-01-28T14:49:50.004Z,71.21
2023-01-28T14:53:59.246Z,71.17
2023-01-28T14:58:20.303Z,71.07
2023-01-28T15:02:24.723Z,71.00
2023-01-28T15:06:36.034Z,71.11
2023-01-28T15:10:39.331Z,70.97
2023-01-28T15:14:41.986Z,71.37
2023-01-28T15:18:45.183Z,71.30
2023-01-28T15:22:47.561Z,71.16
2023-01-28T15:26:49.559Z,71.06
2023-01-28T15:30:51.392Z,71.15
2023-01-28T15:34:53.622Z,71.43
2023-01-28T15:38:56.648Z,71.51
2023-01-28T15:42:58.980Z,71.45
2023-01-28T15:47:02.513Z,71.64
2023-01-28T15:51:18.448Z,71.59
2023-01-28T15:55:39.424Z,71.40
2023-01-28T15:59:41.466Z,71.59
2023-01-28T16:03:46.310Z,71.58
2023-01-28T16:07:48.082Z,71.94
2023-01-28T16:11:49.903Z,71.67
2023-01-28T16:15:53.787Z,72.09
2023-01-28T16:20:04.886Z,71.95
2023-01-28T16:24:22.424Z,72.09
2023-01-28T16:28:24.274Z,71.92
2023-01-28T16:32:33.032Z,72.05
2023-01-28T16:36:35.201Z,72.08
2023-01-28T16:40:38.720Z,71.95
2023-01-28T16:44:40.479Z,72.09
2023-01-28T16:48:42.339Z,72.46
2023-01-28T16:52:46.262Z,72.55
2023-01-28T16:56:48.459Z,72.40
2023-01-28T17:00:50.312Z,72.97
2023-01-28T17:04:52.056Z,72.72
2023-01-28T17:08:53.902Z,73.17
2023-01-28T17:12:55.655Z,73.41
2023-01-28T17:16:57.476Z,73.50
2023-01-28T17:21:04.256Z,73.39
2023-01-28T17:25:06.371Z,73.29
2023-01-28T17:29:08.365Z,73.48
2023-01-28T17:33:10.264Z,73.58
2023-01-28T17:37:11.945Z,73.67
2023-01-28T17:41:14.291Z,73.55
2023-01-28T17:45:17.300Z,73.95
2023-01-28T17:49:19.487Z,73.77
2023-01-28T17:53:21.184Z,73.96
2023-01-28T17:57:23.374Z,73.66
2023-01-28T18:01:26.807Z,73.79
2023-01-28T18:05:28.565Z,73.92
2023-01-28T18:09:30.316Z,74.09
2023-01-28T18:13:32.383Z,74.02
2023-01-28T18:17:34.167Z,74.17
2023-01-28T18:21:56.951Z,74.75
2023-01-28T18:26:01.018Z,74.27
2023-01-28T18:30:03.137Z,74.73
2023-01-28T18:34:04.848Z,74.36
2023-01-28T18:38:06.585Z,74.74
2023-01-28T18:42:09.033Z,74.68
2023-01-28T18:46:13.218Z,74.63
2023-01-28T18:50:15.361Z,75.22
2023-01-28T18:54:17.215Z,74.61
2023-01-28T18:58:19.393Z,74.93
2023-01-28T19:02:21.244Z,75.16
2023-01-28T19:06:24.005Z,74.80
2023-01-28T19:10:25.923Z,75.24
2023-01-28T19:14:27.711Z,75.23
2023-01-28T19:18:29.665Z,75.53
2023-01-28T19:22:31.490Z,75.56
2023-01-28T19:26:33.274Z,75.46
2023-01-28T19:30:36.329Z,75.55
2023-01-28T19:34:38.030Z,75.83
2023-01-28T19:38:40.501Z,75.96
2023-01-28T19:42:42.292Z,76.10
2023-01-28T19:46:44.205Z,76.05
2023-01-28T19:50:46.051Z,75.88
2023-01-28T19:54:48.403Z,76.49
2023-01-28T19:58:50.333Z,76.52
2023-01-28T20:02:52.095Z,76.56
2023-01-28T20:06:53.845Z,76.43
2023-01-28T20:11:03.138Z,76.58
2023-01-28T20:15:05.265Z,76.71
2023-01-28T20:19:08.965Z,76.85
2023-01-28T20:23:10.655Z,76.57
2023-01-28T20:27:12.364Z,77.03
2023-01-28T20:31:14.546Z,77.17
2023-01-28T20:35:16.672Z,77.29
2023-01-28T20:39:18.915Z,77.06
2023-01-28T20:43:20.680Z,77.48
2023-01-28T20:47:22.389Z,77.07
2023-01-28T20:51:26.828Z,77.23
2023-01-28T20:55:28.866Z,77.65
2023-01-28T20:59:32.582Z,77.31
2023-01-28T21:03:34.471Z,77.45
2023-01-28T21:07:36.258Z,77.50
2023-01-28T21:11:37.964Z,77.67
2023-01-28T21:15:39.889Z,77.71
2023-01-28T21:19:41.608Z,77.73
2023-01-28T21:23:43.404Z,77.87
2023-01-28T21:27:45.136Z,77.61
2023-01-28T21:31:47.220Z,77.61
2023-01-28T21:35:48.908Z,77.79
2023-01-28T21:39:50.685Z,77.92
2023-01-28T21:43:54.102Z,78.11
2023-01-28T21:47:57.407Z,77.86
2023-01-28T21:51:59.258Z,78.36
2023-01-28T21:56:01.011Z,78.52
2023-01-28T22:00:03.254Z,78.41
2023-01-28T22:04:14.145Z,78.81
2023-01-28T22:08:16.401Z,78.69
2023-01-28T22:12:18.405Z,79.01
2023-01-28T22:16:20.204Z,78.82
2023-01-28T22:20:22.068Z,79.00
2023-01-28T22:24:24.784Z,79.39
2023-01-28T22:28:27.764Z,79.90
2023-01-28T22:32:29.481Z,79.50
2023-01-28T22:36:33.091Z,79.99
2023-01-28T22:40:35.650Z,80.05
2023-01-28T22:44:37.453Z,80.05
2023-01-28T22:48:39.980Z,80.10
2023-01-28T22:52:41.957Z,80.19
2023-01-28T22:56:43.835Z,80.01
2023-01-28T23:00:45.594Z,80.10
2023-01-28T23:04:47.854Z,80.18
2023-01-28T23:08:49.867Z,80.38
2023-01-28T23:12:54.073Z,80.22
2023-01-28T23:17:14.455Z,80.40
2023-01-28T23:21:38.339Z,80.13
2023-01-28T23:25:40.237Z,80.24
2023-01-28T23:29:42.126Z,80.23
2023-01-28T23:33:43.857Z,80.23
2023-01-28T23:37:46.079Z,80.05
2023-01-28T23:41:47.743Z,80.11
2023-01-28T23:45:49.729Z,80.39
2023-01-28T23:49:51.495Z,80.38
2023-01-28T23:53:53.260Z,80.48
2023-01-28T23:57:55.285Z,80.32
